Time;durP1;ratioP1;P1;durP2;ratioP2;P2;SDS_P1;SDS_P2;PMS_P1;PMS_P2;Temp;Humidity;BMP_temperature;BMP_pressure;BME280_temperature;BME280_humidity;BME280_pressure;Samples;Min_cycle;Max_cycle;Signal;HPM_P1;HPM_P2
2022/04/04 00:00:12;;;;;;;5.50;5.00;;;6.40;73.30;;;6.27;52.73;95167.72;5084270;28;21168;-54
2022/04/04 00:02:39;;;;;;;4.90;4.50;;;6.40;73.20;;;6.22;52.65;95174.19;5084713;28;20492;-56
2022/04/04 00:05:07;;;;;;;11.53;4.90;;;6.40;73.20;;;6.20;52.73;95170.88;5086313;28;20854;-53
2022/04/04 00:07:34;;;;;;;6.30;5.73;;;6.30;73.40;;;6.16;52.46;95177.22;5085712;28;20880;-57
2022/04/04 00:10:02;;;;;;;5.90;5.10;;;6.30;73.20;;;6.09;52.32;95174.22;5084482;28;21243;-53
2022/04/04 00:12:30;;;;;;;6.10;4.80;;;6.20;73.00;;;6.03;52.21;95180.69;5084871;28;20484;-55
2022/04/04 00:14:58;;;;;;;6.13;5.47;;;6.20;73.00;;;5.98;52.29;95181.91;5085490;28;21025;-55
2022/04/04 00:17:25;;;;;;;5.87;5.37;;;6.10;73.10;;;5.96;52.64;95183.78;5084168;28;20461;-56
2022/04/04 00:19:52;;;;;;;6.60;5.90;;;6.10;73.30;;;5.93;52.49;95183.06;5085001;28;20542;-56
2022/04/04 00:22:20;;;;;;;8.33;5.90;;;6.10;73.00;;;5.92;52.41;95183.16;5085188;28;20458;-56
2022/04/04 00:24:47;;;;;;;5.30;4.80;;;6.00;73.50;;;5.92;52.62;95177.94;5081737;28;20482;-56
2022/04/04 00:27:14;;;;;;;5.20;4.40;;;6.00;73.50;;;5.92;52.58;95177.94;5085090;28;20454;-56
2022/04/04 00:29:43;;;;;;;5.00;4.50;;;6.00;73.60;;;5.91;52.57;95181.47;5085773;28;21024;-55
2022/04/04 00:32:11;;;;;;;8.97;4.73;;;6.00;73.40;;;5.92;52.51;95172.72;5082433;28;20454;-56
2022/04/04 00:34:38;;;;;;;5.80;4.73;;;6.00;73.50;;;5.92;52.39;95167.50;5086315;28;21047;-54
2022/04/04 00:37:06;;;;;;;5.53;3.70;;;6.00;73.50;;;5.92;52.25;95170.94;5083249;28;20875;-53
2022/04/04 00:39:33;;;;;;;3.83;3.53;;;6.00;73.00;;;5.92;52.43;95172.72;5084453;28;20473;-56
2022/04/04 00:42:00;;;;;;;4.07;3.77;;;6.10;73.50;;;5.95;52.51;95171.66;5085105;28;20775;-56
2022/04/04 00:44:28;;;;;;;4.20;3.90;;;6.00;73.20;;;5.95;52.38;95174.25;5082885;28;20489;-55
2022/04/04 00:46:57;;;;;;;3.93;3.63;;;6.10;73.20;;;5.95;52.63;95169.03;5084052;28;20454;-54
2022/04/04 00:49:24;;;;;;;4.93;4.53;;;6.10;73.40;;;5.94;52.60;95186.50;5083814;28;20960;-56
2022/04/04 00:51:51;;;;;;;5.10;4.17;;;6.10;73.20;;;5.93;52.59;95184.81;5084492;28;20458;-56
2022/04/04 00:54:19;;;;;;;4.83;4.33;;;6.10;73.00;;;5.89;52.29;95194.63;5084044;28;20461;-56
2022/04/04 00:56:46;;;;;;;4.40;4.00;;;6.00;72.90;;;5.88;52.30;95187.72;5084237;28;20488;-54
2022/04/04 00:59:16;;;;;;;5.13;4.70;;;6.00;72.80;;;5.86;52.41;95186.19;5084144;28;20541;-55
2022/04/04 01:01:43;;;;;;;4.00;3.70;;;6.00;73.00;;;5.85;52.54;95193.16;5082950;28;20462;-53
2022/04/04 01:04:13;;;;;;;11.93;4.33;;;6.00;72.80;;;5.83;52.37;95189.00;5084496;28;20998;-56
2022/04/04 01:06:40;;;;;;;4.70;4.40;;;6.00;73.00;;;5.82;52.33;95189.94;5084250;28;20515;-55
2022/04/04 01:09:07;;;;;;;5.30;4.37;;;6.00;73.10;;;5.81;52.60;95188.25;5082833;28;20492;-53
2022/04/04 01:11:36;;;;;;;4.77;4.43;;;5.90;73.10;;;5.79;52.20;95180.53;5084558;28;20450;-57
2022/04/04 01:14:03;;;;;;;4.87;4.30;;;5.90;72.70;;;5.77;52.41;95176.38;5083613;28;20475;-56
2022/04/04 01:16:31;;;;;;;5.10;4.60;;;5.90;72.70;;;5.75;52.24;95181.69;5083945;28;20967;-55
2022/04/04 01:18:58;;;;;;;5.00;4.50;;;5.90;72.70;;;5.71;52.29;95183.63;5082304;28;20462;-54
2022/04/04 01:21:26;;;;;;;5.03;4.57;;;5.90;72.70;;;5.70;52.59;95184.59;5083435;28;20480;-55
2022/04/04 01:23:54;;;;;;;6.03;4.80;;;5.90;72.70;;;5.69;52.50;95185.53;5081809;28;20493;-56
2022/04/04 01:26:22;;;;;;;5.20;4.60;;;5.80;72.80;;;5.69;52.38;95182.09;5084639;28;20485;-54
2022/04/04 01:28:50;;;;;;;4.30;3.90;;;5.80;72.70;;;5.69;52.64;95176.88;5082953;28;21057;-55
2022/04/04 01:31:17;;;;;;;7.43;5.93;;;5.80;73.10;;;5.69;52.34;95166.44;5082822;28;20482;-55
2022/04/04 01:33:44;;;;;;;4.33;4.00;;;5.80;73.10;;;5.67;52.55;95163.94;5084212;28;20454;-56
2022/04/04 01:36:12;;;;;;;4.80;4.40;;;5.80;72.80;;;5.65;52.50;95164.97;5081035;28;20531;-57
2022/04/04 01:38:39;;;;;;;4.87;4.47;;;5.80;72.70;;;5.61;52.29;95160.88;5082570;28;20515;-55
2022/04/04 01:41:06;;;;;;;5.43;4.87;;;5.80;72.60;;;5.57;52.25;95162.88;5083603;28;20585;-55
2022/04/04 01:43:35;;;;;;;9.43;4.83;;;5.70;72.60;;;5.52;52.32;95167.56;5082282;28;20974;-55
2022/04/04 01:48:47;;;;;;;4.97;4.50;;;5.70;72.70;;;5.46;52.71;95170.56;5080007;28;20622;-52
2022/04/04 01:51:14;;;;;;;4.77;4.40;;;5.60;72.70;;;5.43;52.33;95170.78;5080474;28;20826;-57
2022/04/04 01:53:42;;;;;;;6.70;4.37;;;5.60;72.60;;;5.41;52.32;95167.41;5082969;28;20821;-55
2022/04/04 01:56:09;;;;;;;5.60;4.97;;;5.50;72.50;;;5.40;52.57;95182.22;5081123;28;20551;-56
2022/04/04 01:58:38;;;;;;;4.67;4.27;;;5.60;72.80;;;5.39;52.59;95181.41;5082633;28;20462;-55
2022/04/04 02:01:10;;;;;;;5.07;4.67;;;5.50;72.50;;;5.36;52.38;95179.00;5083350;28;20478;-56
2022/04/04 02:03:37;;;;;;;7.40;4.90;;;5.50;72.40;;;5.37;52.38;95169.41;5080583;28;20450;-54
2022/04/04 02:06:05;;;;;;;7.70;6.90;;;5.50;72.90;;;5.36;52.80;95176.38;5082401;28;20474;-56
2022/04/04 02:08:32;;;;;;;5.00;4.60;;;5.50;73.30;;;5.37;52.75;95169.41;5082984;28;20458;-54
2022/04/04 02:11:00;;;;;;;9.70;6.03;;;5.50;73.40;;;5.39;52.63;95165.75;5081952;28;21187;-54
2022/04/04 02:13:27;;;;;;;4.60;3.90;;;5.50;73.30;;;5.41;52.63;95167.41;5082067;28;20453;-61
2022/04/04 02:15:56;;;;;;;4.57;4.17;;;5.60;73.10;;;5.39;52.57;95164.91;5083311;28;20513;-55
2022/04/04 02:18:24;;;;;;;6.00;4.73;;;5.60;72.90;;;5.42;52.52;95169.09;5082681;28;20464;-54
2022/04/04 02:20:52;;;;;;;5.37;4.87;;;5.60;73.10;;;5.42;52.59;95166.47;5082668;28;20474;-55
2022/04/04 02:23:20;;;;;;;4.73;4.20;;;5.60;73.10;;;5.42;52.46;95167.31;5083585;28;20454;-56
2022/04/04 02:25:47;;;;;;;4.17;3.87;;;5.60;72.40;;;5.41;52.43;95167.41;5082718;28;20513;-55
2022/04/04 02:28:14;;;;;;;5.37;4.87;;;5.60;72.50;;;5.42;52.30;95161.25;5084402;28;20458;-55
2022/04/04 02:30:42;;;;;;;4.10;3.80;;;5.60;72.60;;;5.43;52.08;95170.78;5083770;28;20485;-55
2022/04/04 02:33:12;;;;;;;5.30;4.80;;;5.60;72.40;;;5.41;52.03;95162.19;5081836;28;20458;-56
2022/04/04 02:35:39;;;;;;;3.97;3.70;;;5.60;72.40;;;5.39;52.28;95157.94;5083565;28;20482;-55
2022/04/04 02:38:07;;;;;;;4.70;4.20;;;5.60;72.40;;;5.37;51.82;95141.53;5082681;28;20469;-55
2022/04/04 02:40:34;;;;;;;4.60;4.17;;;5.50;72.10;;;5.36;52.02;95150.31;5083796;28;20974;-55
2022/04/04 02:43:02;;;;;;;4.00;3.63;;;5.50;72.20;;;5.35;51.97;95150.41;5082461;28;20466;-55
2022/04/04 02:45:30;;;;;;;6.00;4.40;;;5.50;71.50;;;5.34;51.71;95146.13;5079121;28;20477;-53
2022/04/04 02:47:57;;;;;;;5.30;4.80;;;5.50;71.50;;;5.34;51.83;95151.34;5083025;28;20496;-56
2022/04/04 02:50:26;;;;;;;9.30;5.10;;;5.50;71.70;;;5.33;51.66;95155.72;5078898;28;20509;-55
2022/04/04 02:52:53;;;;;;;4.03;3.77;;;5.50;71.50;;;5.32;51.87;95148.84;5083887;28;20813;-56
2022/04/04 02:58:05;;;;;;;4.93;4.60;;;5.50;71.40;;;5.28;51.59;95136.91;5083208;28;20499;-54
2022/04/04 03:00:32;;;;;;;5.10;4.80;;;5.50;71.40;;;5.29;51.51;95150.81;5081759;28;20466;-56
2022/04/04 03:03:00;;;;;;;10.43;4.90;;;5.40;71.30;;;5.25;51.26;95147.59;5085258;28;20811;-56
2022/04/04 03:05:29;;;;;;;5.47;4.90;;;5.40;70.90;;;5.22;51.54;95147.78;5084268;28;20465;-54
2022/04/04 03:07:56;;;;;;;5.80;5.23;;;5.40;71.10;;;5.19;51.76;95143.59;5086413;28;20461;-56
2022/04/04 03:10:23;;;;;;;5.27;4.77;;;5.40;71.10;;;5.15;51.98;95144.72;5084932;28;20634;-56
2022/04/04 03:12:51;;;;;;;5.20;4.40;;;5.30;71.40;;;5.12;51.89;95151.91;5084536;28;20454;-56
2022/04/04 03:15:21;;;;;;;6.30;5.70;;;5.30;71.30;;;5.08;51.99;95150.44;5084899;28;20840;-54
2022/04/04 03:17:51;;;;;;;5.30;4.80;;;5.20;71.40;;;5.06;52.06;95141.88;5083004;28;20984;-54
2022/04/04 03:20:19;;;;;;;4.93;4.43;;;5.20;71.70;;;5.03;52.01;95148.13;5086846;28;20489;-55
2022/04/04 03:22:51;;;;;;;5.10;4.80;;;5.20;71.90;;;5.00;52.01;95149.19;5086891;28;20454;-54
2022/04/04 03:25:18;;;;;;;5.43;5.00;;;5.20;72.00;;;4.97;52.43;95154.59;5085152;28;21013;-54
2022/04/04 03:27:46;;;;;;;5.50;5.10;;;5.20;72.00;;;4.95;51.93;95153.00;5086236;28;20465;-57
2022/04/04 03:30:17;;;;;;;5.30;4.90;;;5.10;71.90;;;4.93;52.38;95158.31;5084547;28;20501;-55
2022/04/04 03:32:45;;;;;;;4.60;4.20;;;5.10;72.00;;;4.91;52.38;95161.94;5085551;28;20511;-54
2022/04/04 03:35:13;;;;;;;9.90;6.00;;;5.10;72.40;;;4.88;51.98;95165.59;5085266;28;20470;-55
2022/04/04 03:37:40;;;;;;;4.93;4.53;;;5.10;71.90;;;4.87;52.53;95173.50;5084146;28;20541;-56
2022/04/04 03:40:12;;;;;;;5.60;5.10;;;5.10;72.00;;;4.84;52.34;95180.56;5083523;28;20488;-53
2022/04/04 03:42:39;;;;;;;6.90;5.30;;;5.00;72.00;;;4.82;52.44;95184.22;5084452;28;20507;-55
2022/04/04 03:45:07;;;;;;;5.63;5.17;;;5.00;72.50;;;4.80;52.56;95173.06;5085648;28;20857;-57
2022/04/04 03:47:35;;;;;;;6.67;5.57;;;5.00;72.70;;;4.81;52.56;95179.94;5085018;28;20976;-55
2022/04/04 03:50:02;;;;;;;5.80;5.30;;;5.00;72.50;;;4.80;52.52;95180.88;5084357;28;20500;-55
2022/04/04 03:52:29;;;;;;;12.40;5.93;;;5.00;72.50;;;4.78;52.08;95190.56;5085370;28;20518;-58
2022/04/04 03:54:57;;;;;;;9.57;6.50;;;5.00;72.50;;;4.74;52.25;95186.47;5084766;28;20496;-56
2022/04/04 03:57:25;;;;;;;7.77;5.83;;;4.90;72.10;;;4.72;52.11;95190.94;5086038;28;20466;-57
2022/04/04 03:59:53;;;;;;;9.60;6.97;;;4.90;72.00;;;4.71;52.31;95191.88;5085181;28;20473;-55
2022/04/04 04:02:20;;;;;;;11.20;6.73;;;4.90;72.90;;;4.73;52.46;95188.25;5083650;28;20461;-55
2022/04/04 04:04:48;;;;;;;5.57;5.07;;;4.90;72.70;;;4.72;52.48;95201.38;5083593;28;20478;-54
2022/04/04 04:07:16;;;;;;;6.03;5.50;;;4.90;72.40;;;4.76;52.80;95198.47;5086525;28;20977;-57
2022/04/04 04:09:43;;;;;;;7.20;5.50;;;4.90;73.90;;;4.80;52.91;95199.97;5086741;28;20843;-56
2022/04/04 04:12:11;;;;;;;6.90;5.83;;;5.00;74.40;;;4.84;52.64;95206.63;5085301;28;20522;-55
2022/04/04 04:14:41;;;;;;;9.33;6.80;;;5.00;73.30;;;4.89;52.59;95214.16;5087158;28;20478;-53
2022/04/04 04:17:08;;;;;;;9.70;6.13;;;5.00;73.80;;;4.93;52.58;95220.03;5085744;28;21029;-54
2022/04/04 04:22:21;;;;;;;8.33;5.83;;;5.10;73.10;;;4.98;52.78;95221.41;5086004;28;20457;-56
2022/04/04 04:24:49;;;;;;;8.33;5.70;;;5.20;73.50;;;5.05;52.09;95228.84;5084716;28;20500;-54
2022/04/04 04:27:17;;;;;;;7.17;6.23;;;5.20;72.70;;;5.10;52.32;95232.00;5086253;28;20461;-55
2022/04/04 04:29:45;;;;;;;10.33;5.80;;;5.20;72.20;;;5.14;52.16;95229.09;5086534;28;20493;-55
2022/04/04 04:32:13;;;;;;;6.23;5.57;;;5.30;72.20;;;5.19;52.29;95231.41;5083963;28;20450;-55
2022/04/04 04:34:40;;;;;;;5.63;5.13;;;5.30;72.20;;;5.22;52.12;95231.22;5083288;28;20481;-56
2022/04/04 04:37:08;;;;;;;11.53;5.50;;;5.40;72.20;;;5.26;51.78;95239.69;5085461;28;20519;-54
2022/04/04 04:39:35;;;;;;;6.57;5.93;;;5.40;72.20;;;5.30;52.42;95238.53;5084284;28;21043;-56
2022/04/04 04:42:03;;;;;;;5.80;5.30;;;5.40;72.20;;;5.31;52.07;95235.81;5084611;28;20590;-55
2022/04/04 04:44:30;;;;;;;11.13;6.03;;;5.50;72.40;;;5.34;52.32;95237.41;5084933;28;20504;-55
2022/04/04 04:47:00;;;;;;;6.00;5.27;;;5.50;72.30;;;5.38;52.06;95242.31;5083684;28;20523;-53
2022/04/04 04:49:27;;;;;;;9.80;5.60;;;5.50;72.30;;;5.42;52.25;95242.13;5085389;28;20986;-57
2022/04/04 04:51:55;;;;;;;6.70;6.00;;;5.60;72.40;;;5.44;52.27;95235.88;5082880;28;20944;-58
2022/04/04 04:54:22;;;;;;;7.50;5.30;;;5.60;72.40;;;5.47;51.85;95245.25;5084247;28;21013;-55
2022/04/04 04:56:49;;;;;;;6.10;5.60;;;5.60;72.40;;;5.50;52.07;95245.06;5081313;28;20458;-56
2022/04/04 04:59:17;;;;;;;7.10;5.70;;;5.60;72.50;;;5.51;51.77;95250.19;5084582;28;20453;-56
2022/04/04 05:01:44;;;;;;;6.50;5.90;;;5.70;72.40;;;5.55;51.74;95253.44;5079922;28;20462;-55
2022/04/04 05:04:13;;;;;;;14.00;6.97;;;5.70;72.50;;;5.58;52.09;95261.09;5085485;28;20450;-56
2022/04/04 05:06:40;;;;;;;6.40;5.80;;;5.70;72.40;;;5.60;51.17;95260.97;5085556;28;20582;-55
2022/04/04 05:09:07;;;;;;;9.03;6.43;;;5.70;72.20;;;5.61;51.77;95255.66;5085234;28;20453;-55
2022/04/04 05:11:35;;;;;;;7.13;6.40;;;5.80;72.60;;;5.62;51.77;95264.31;5085242;28;20589;-53
2022/04/04 05:14:02;;;;;;;7.07;5.60;;;5.70;71.80;;;5.62;51.80;95257.31;5084727;28;20447;-55
2022/04/04 05:16:29;;;;;;;10.30;6.30;;;5.80;72.40;;;5.64;51.88;95263.28;5084342;28;20470;-53
2022/04/04 05:18:57;;;;;;;6.60;6.10;;;5.80;72.50;;;5.68;52.62;95259.53;5085478;28;20446;-56
2022/04/04 05:21:25;;;;;;;7.10;6.40;;;5.80;72.60;;;5.72;51.91;95260.19;5085260;28;20848;-54
2022/04/04 05:23:52;;;;;;;8.33;5.93;;;5.90;72.70;;;5.74;51.76;95260.91;5084481;28;20446;-57
2022/04/04 05:26:20;;;;;;;6.47;5.87;;;5.90;72.30;;;5.73;52.07;95265.31;5084942;28;20485;-55
2022/04/04 05:28:47;;;;;;;7.90;5.80;;;5.90;72.70;;;5.76;52.09;95272.06;5084976;28;20917;-58
2022/04/04 05:31:15;;;;;;;7.70;5.60;;;5.90;72.70;;;5.80;51.86;95277.94;5084851;28;20501;-55
2022/04/04 05:33:43;;;;;;;7.50;6.27;;;5.90;72.70;;;5.82;52.11;95281.28;5083197;28;20488;-55
2022/04/04 05:36:10;;;;;;;8.40;6.30;;;5.90;72.70;;;5.85;52.10;95286.31;5085122;28;20470;-56
2022/04/04 05:38:39;;;;;;;6.90;6.27;;;6.00;72.80;;;5.83;51.80;95275.97;5084083;28;20452;-57
2022/04/04 05:41:06;;;;;;;8.33;5.70;;;5.90;72.70;;;5.81;52.16;95287.44;5085143;28;20477;-57
2022/04/04 05:43:33;;;;;;;7.67;5.70;;;5.90;72.70;;;5.77;52.14;95288.59;5084878;28;21074;-55
2022/04/04 05:46:01;;;;;;;6.93;6.23;;;5.90;72.70;;;5.71;52.15;95290.63;5082618;28;20474;-56
2022/04/04 05:48:30;;;;;;;7.20;6.10;;;5.90;72.80;;;5.71;52.62;95297.66;5084918;28;20465;-57
2022/04/04 05:50:57;;;;;;;9.93;7.37;;;5.90;74.10;;;5.78;52.88;95298.06;5082401;28;20547;-55
2022/04/04 05:53:25;;;;;;;7.20;6.40;;;5.90;74.50;;;5.82;52.93;95295.16;5084185;28;20954;-56
2022/04/04 05:55:53;;;;;;;7.83;6.50;;;5.90;74.60;;;5.88;53.19;95286.94;5084993;28;20599;-56
2022/04/04 05:58:21;;;;;;;9.50;7.70;;;6.00;74.80;;;5.96;53.11;95289.03;5084677;28;20956;-55
2022/04/04 06:00:49;;;;;;;9.03;8.10;;;6.00;74.80;;;6.05;53.11;95292.84;5083555;28;20556;-54
2022/04/04 06:03:16;;;;;;;7.20;6.60;;;6.10;75.00;;;6.13;53.04;95300.19;5084023;28;20994;-57
2022/04/04 06:05:43;;;;;;;7.60;6.87;;;6.20;75.10;;;6.23;52.95;95298.63;5084347;28;21694;-55
2022/04/04 06:08:10;;;;;;;11.70;7.47;;;6.30;75.00;;;6.27;52.70;95287.88;5084388;28;21040;-56
2022/04/04 06:10:38;;;;;;;11.03;7.30;;;6.40;74.50;;;6.40;52.63;95293.09;5085206;28;20862;-58
2022/04/04 06:13:07;;;;;;;12.77;8.23;;;6.50;74.10;;;6.48;52.55;95294.38;5085371;28;20853;-56
2022/04/04 06:15:34;;;;;;;24.37;9.07;;;6.60;73.50;;;6.62;52.66;95287.25;5084089;28;20466;-55
2022/04/04 06:18:04;;;;;;;11.37;8.23;;;6.70;73.80;;;6.82;52.35;95291.09;5081693;28;20457;-55
2022/04/04 06:20:32;;;;;;;10.40;7.80;;;6.90;74.00;;;7.07;51.84;95294.63;5083703;28;20473;-56
2022/04/04 06:22:59;;;;;;;9.03;6.30;;;7.00;73.80;;;7.26;51.89;95291.53;5084068;28;20450;-55
2022/04/04 06:25:26;;;;;;;7.90;6.93;;;7.30;72.90;;;7.45;51.22;95280.59;5083899;28;20863;-56
2022/04/04 06:27:54;;;;;;;7.73;6.53;;;7.50;72.00;;;7.58;51.21;95285.78;5084279;28;20966;-54
2022/04/04 06:30:23;;;;;;;6.10;5.60;;;7.60;71.30;;;7.74;49.63;95276.81;5081403;28;20494;-56
2022/04/04 06:32:50;;;;;;;7.07;6.07;;;7.80;69.70;;;7.83;49.77;95276.13;5083972;28;20439;-55
2022/04/04 06:35:18;;;;;;;6.20;5.70;;;7.90;68.50;;;7.93;49.47;95279.72;5085459;28;20550;-56
2022/04/04 06:37:46;;;;;;;7.00;6.30;;;7.90;68.30;;;8.03;49.01;95279.88;5088948;28;20697;-55
2022/04/04 06:40:14;;;;;;;7.93;7.17;;;8.10;67.40;;;8.12;48.43;95279.22;5087818;28;20461;-55
2022/04/04 06:42:44;;;;;;;14.27;7.03;;;8.10;66.80;;;8.22;48.93;95274.94;5088587;28;20453;-57
2022/04/04 06:45:12;;;;;;;6.57;5.90;;;8.20;66.70;;;8.29;46.88;95272.69;5087813;28;20473;-58
2022/04/04 06:47:41;;;;;;;6.07;5.47;;;8.30;63.10;;;8.35;45.88;95280.09;5086473;28;20452;-57
2022/04/04 06:50:09;;;;;;;5.47;4.97;;;8.40;62.30;;;8.36;47.18;95286.16;5088440;28;20479;-55
2022/04/04 06:52:37;;;;;;;6.33;5.73;;;8.40;62.20;;;8.38;46.29;95292.13;5088207;28;20450;-56
2022/04/04 06:55:06;;;;;;;6.70;6.10;;;8.40;61.50;;;8.45;46.55;95293.38;5088187;28;21047;-59
2022/04/04 06:57:34;;;;;;;10.80;6.80;;;8.50;62.20;;;8.55;46.72;95294.34;5086670;28;20523;-57
2022/04/04 07:00:01;;;;;;;16.33;8.37;;;8.60;61.50;;;8.69;45.75;95293.28;5088694;28;20477;-57
2022/04/04 07:02:28;;;;;;;12.43;7.13;;;8.70;60.70;;;8.83;46.48;95284.34;5087258;28;20455;-56
2022/04/04 07:04:57;;;;;;;7.80;6.90;;;8.80;61.60;;;9.00;44.94;95287.44;5087801;28;20488;-55
2022/04/04 07:07:25;;;;;;;7.83;7.10;;;9.00;58.80;;;9.13;46.05;95285.53;5088829;28;20457;-56
2022/04/04 07:09:52;;;;;;;8.30;7.37;;;9.10;61.00;;;9.36;46.16;95296.84;5087242;28;20969;-56
2022/04/04 07:12:20;;;;;;;7.47;6.73;;;9.30;61.90;;;9.59;44.72;95294.16;5087526;28;20619;-57
2022/04/04 07:14:47;;;;;;;5.63;5.23;;;9.50;59.50;;;9.74;43.60;95297.34;5088454;28;20592;-56
2022/04/04 07:17:14;;;;;;;11.50;7.17;;;9.70;57.60;;;9.91;43.38;95299.44;5087831;28;20454;-56
2022/04/04 07:19:42;;;;;;;6.87;6.27;;;9.90;57.00;;;10.07;43.07;95303.44;5085449;28;20481;-54
2022/04/04 07:22:11;;;;;;;14.63;6.50;;;10.00;55.20;;;10.19;43.08;95294.53;5087351;28;20807;-55
2022/04/04 07:24:38;;;;;;;12.20;5.60;;;10.10;55.10;;;10.34;42.24;95303.00;5087813;28;20474;-56
2022/04/04 07:27:06;;;;;;;8.80;5.97;;;10.30;54.40;;;10.47;41.96;95297.53;5087953;28;20442;-57
2022/04/04 07:29:33;;;;;;;7.63;6.17;;;10.40;53.50;;;10.61;41.37;95304.25;5087273;28;21025;-56
2022/04/04 07:32:01;;;;;;;6.20;5.63;;;10.60;52.70;;;10.76;40.59;95302.97;5085830;28;20487;-56
2022/04/04 07:34:28;;;;;;;7.70;5.57;;;10.70;51.70;;;10.87;42.27;95305.50;5087883;28;20473;-56
2022/04/04 07:36:56;;;;;;;8.30;5.37;;;10.80;53.80;;;11.12;42.26;95313.94;5087412;28;20453;-56
2022/04/04 07:39:24;;;;;;;7.60;5.73;;;11.00;54.10;;;11.40;40.71;95301.88;5087060;28;20919;-56
2022/04/04 07:41:52;;;;;;;7.67;6.97;;;11.20;52.70;;;11.62;39.88;95299.97;5085143;28;20481;-58
2022/04/04 07:44:19;;;;;;;6.37;5.73;;;11.50;51.10;;;11.77;41.00;95303.03;5086823;28;20470;-54
2022/04/04 07:46:47;;;;;;;7.20;6.20;;;11.70;52.40;;;11.92;40.87;95300.84;5087399;28;20453;-56
2022/04/04 07:49:14;;;;;;;6.90;5.80;;;11.80;51.90;;;12.10;41.04;95296.59;5086304;28;20458;-56
2022/04/04 07:51:41;;;;;;;11.60;6.20;;;12.00;52.20;;;12.29;39.86;95305.47;5086728;28;20487;-57
2022/04/04 07:54:09;;;;;;;5.87;5.37;;;12.20;50.50;;;12.43;39.11;95310.31;5087505;28;20452;-58
2022/04/04 07:56:37;;;;;;;6.70;5.33;;;12.40;49.00;;;12.54;38.97;95307.50;5086152;28;20457;-56
2022/04/04 07:59:05;;;;;;;6.23;5.73;;;12.50;49.20;;;12.71;37.48;95307.78;5086193;28;20898;-56
2022/04/04 08:01:33;;;;;;;7.33;5.60;;;12.70;47.10;;;12.77;39.14;95316.94;5086605;28;20450;-57
2022/04/04 08:04:00;;;;;;;7.03;6.33;;;12.80;49.30;;;12.89;39.78;95315.81;5086235;28;20462;-57
2022/04/04 08:06:28;;;;;;;6.27;5.67;;;12.90;49.90;;;13.03;36.87;95311.88;5087001;28;20973;-57
2022/04/04 08:08:55;;;;;;;7.03;4.83;;;13.00;47.00;;;13.03;38.21;95310.06;5086679;28;20456;-57
2022/04/04 08:11:23;;;;;;;6.37;5.43;;;13.00;47.40;;;13.03;36.16;95309.25;5086945;28;20493;-56
2022/04/04 08:13:52;;;;;;;7.90;5.20;;;13.10;45.90;;;12.98;38.48;95301.75;5087651;28;20456;-56
2022/04/04 08:16:19;;;;;;;6.30;5.17;;;13.00;47.50;;;13.03;36.47;95306.59;5086104;28;20470;-57
2022/04/04 08:18:46;;;;;;;5.33;4.83;;;13.00;46.00;;;13.16;38.75;95304.44;5084832;28;21100;-57
2022/04/04 08:21:15;;;;;;;6.47;5.70;;;13.10;48.90;;;13.42;38.76;95298.53;5085254;28;20462;-58
2022/04/04 08:23:43;;;;;;;6.13;5.63;;;13.30;49.00;;;13.70;37.74;95296.69;5085482;28;20449;-57
2022/04/04 08:26:10;;;;;;;5.50;5.00;;;13.60;47.90;;;13.87;36.33;95294.25;5084847;28;20565;-59
2022/04/04 08:28:38;;;;;;;5.97;4.93;;;13.80;45.70;;;13.89;36.03;95276.41;5085543;28;20435;-56
2022/04/04 08:31:07;;;;;;;6.57;5.97;;;13.90;44.30;;;13.78;35.97;95280.91;5084932;28;20825;-57
2022/04/04 08:33:35;;;;;;;5.90;4.87;;;13.80;44.20;;;13.72;35.26;95285.97;5082677;28;20499;-56
2022/04/04 08:36:03;;;;;;;6.70;4.50;;;13.80;44.20;;;13.62;35.51;95281.59;5086638;28;20466;-57
2022/04/04 08:38:31;;;;;;;5.83;4.30;;;13.70;44.00;;;13.62;37.22;95278.13;5087053;28;20450;-57
2022/04/04 08:41:01;;;;;;;6.20;5.40;;;13.70;46.20;;;13.76;37.46;95271.50;5086065;28;20481;-57
2022/04/04 08:43:28;;;;;;;6.60;4.40;;;13.80;46.90;;;13.90;37.34;95262.22;5086759;28;20450;-57
2022/04/04 08:45:56;;;;;;;6.77;4.87;;;13.90;46.60;;;14.01;36.50;95258.50;5086545;28;20825;-57
2022/04/04 08:48:25;;;;;;;7.63;5.40;;;14.00;45.50;;;14.02;35.20;95262.81;5079882;28;20557;-57
2022/04/04 08:50:53;;;;;;;6.17;5.67;;;14.00;44.20;;;14.05;34.97;95255.41;5084393;28;20490;-57
2022/04/04 08:53:20;;;;;;;12.60;5.30;;;14.00;44.20;;;14.12;36.25;95251.16;5085673;28;20564;-57
2022/04/04 08:55:48;;;;;;;7.60;5.00;;;14.00;44.80;;;14.19;36.21;95250.56;5085049;28;20478;-57
2022/04/04 08:58:15;;;;;;;8.63;4.90;;;14.10;44.90;;;14.31;36.73;95246.69;5085074;28;20446;-56
2022/04/04 09:00:42;;;;;;;5.00;4.57;;;14.20;46.10;;;14.54;37.15;95249.66;5085942;28;20485;-56
2022/04/04 09:03:10;;;;;;;5.23;4.83;;;14.40;46.80;;;14.83;37.01;95246.75;5084024;28;20457;-57
2022/04/04 09:05:52;;;;;;;5.27;4.80;;;14.60;46.60;;;15.08;35.51;95246.06;5085896;28;20470;-56
2022/04/04 09:08:20;;;;;;;7.10;4.67;;;14.90;45.10;;;15.27;35.91;95239.66;5086156;28;20480;-57
2022/04/04 09:10:47;;;;;;;7.63;4.53;;;15.10;45.10;;;15.40;35.14;95240.06;5083521;28;20515;-57
2022/04/04 09:13:16;;;;;;;6.70;5.47;;;15.20;44.50;;;15.44;34.89;95235.25;5083877;28;20958;-56
2022/04/04 09:16:00;;;;;;;5.80;5.30;;;15.30;44.20;;;15.47;35.29;95230.47;5084318;28;20544;-55
2022/04/04 09:18:49;;;;;;;7.87;4.67;;;15.30;44.50;;;15.67;34.39;95225.69;5082627;28;20442;-57
2022/04/04 09:21:35;;;;;;;9.67;4.63;;;15.50;44.10;;;15.79;34.13;95228.09;5083546;28;20537;-57
2022/04/04 09:24:07;;;;;;;5.00;4.60;;;15.60;43.50;;;15.74;35.06;95223.25;5083276;28;20967;-56
2022/04/04 09:26:37;;;;;;;5.90;5.00;;;15.70;44.10;;;15.81;32.60;95220.81;5085281;28;20581;-57
2022/04/04 09:29:08;;;;;;;8.63;4.87;;;15.70;42.30;;;15.80;33.93;95209.38;5085103;28;20450;-56
2022/04/04 09:31:36;;;;;;;5.57;5.07;;;15.70;42.30;;;15.83;34.58;95209.00;5084472;28;20516;-57
2022/04/04 09:34:05;;;;;;;4.97;4.57;;;15.70;43.00;;;15.97;34.97;95204.88;5085006;28;20539;-58
2022/04/04 09:36:46;;;;;;;4.77;4.47;;;15.80;43.80;;;16.19;34.51;95197.25;5084740;28;20535;-57
2022/04/04 09:39:14;;;;;;;5.27;4.77;;;16.00;43.70;;;16.38;33.93;95202.22;5082595;28;20527;-57
2022/04/04 09:41:42;;;;;;;4.97;4.53;;;16.20;42.70;;;16.51;34.11;95200.91;5085302;28;20535;-56
2022/04/04 09:44:11;;;;;;;4.73;4.33;;;16.30;43.10;;;16.78;33.68;95197.03;5084970;28;20480;-61
2022/04/04 09:46:39;;;;;;;4.50;4.13;;;16.50;42.60;;;16.98;33.90;95198.31;5084499;28;20442;-56
2022/04/04 09:49:13;;;;;;;5.43;4.83;;;16.70;42.80;;;17.16;31.77;95190.09;5083544;28;20450;-56
2022/04/04 09:51:44;;;;;;;4.60;4.20;;;16.90;40.50;;;17.10;31.52;95182.84;5082193;28;20505;-57
2022/04/04 09:54:14;;;;;;;5.27;4.73;;;16.90;39.60;;;16.94;32.82;95191.69;5084243;28;20887;-57
2022/04/04 09:56:42;;;;;;;4.80;4.47;;;16.90;40.80;;;16.97;33.05;95185.22;5084622;28;20525;-57
2022/04/04 09:59:12;;;;;;;11.30;5.27;;;16.80;41.00;;;17.13;32.90;95173.69;5084427;28;20940;-57
2022/04/04 10:01:40;;;;;;;6.33;5.07;;;16.90;41.70;;;17.26;32.60;95167.78;5084077;28;20450;-57
2022/04/04 10:04:08;;;;;;;4.50;4.20;;;17.10;41.20;;;17.29;32.60;95162.13;5083823;28;20569;-57
2022/04/04 10:06:36;;;;;;;4.70;4.23;;;17.10;41.20;;;17.35;32.48;95156.13;5084360;28;20446;-57
2022/04/04 10:09:05;;;;;;;6.47;4.80;;;17.10;41.10;;;17.35;30.49;95151.66;5084690;28;20445;-56
2022/04/04 10:11:34;;;;;;;4.67;4.23;;;17.20;38.90;;;17.34;31.51;95146.50;5087872;28;20542;-56
2022/04/04 10:14:02;;;;;;;5.03;4.40;;;17.20;39.70;;;17.28;32.15;95140.03;5086120;28;20442;-57
2022/04/04 10:16:30;;;;;;;4.30;4.10;;;17.10;40.10;;;17.25;32.45;95136.91;5089244;28;20473;-56
2022/04/04 10:18:58;;;;;;;4.00;3.70;;;17.10;40.30;;;17.17;32.12;95127.16;5088344;28;20822;-57
2022/04/04 10:21:26;;;;;;;5.27;4.17;;;17.10;40.40;;;17.13;32.54;95131.16;5088634;28;20567;-58
2022/04/04 10:23:56;;;;;;;4.03;3.77;;;17.00;40.50;;;17.11;31.45;95126.00;5087827;28;20503;-56
2022/04/04 10:26:28;;;;;;;4.30;4.00;;;16.90;39.10;;;16.95;31.84;95126.91;5088849;28;20535;-57
2022/04/04 10:29:14;;;;;;;4.37;4.00;;;16.80;39.60;;;16.80;31.58;95116.16;5088830;28;20491;-56
2022/04/04 10:31:49;;;;;;;9.60;4.77;;;16.70;40.10;;;16.60;31.66;95115.72;5087729;28;21077;-58
2022/04/04 10:34:18;;;;;;;4.73;4.20;;;16.60;39.50;;;16.35;32.26;95117.63;5087623;28;20442;-56
2022/04/04 10:36:57;;;;;;;5.30;4.87;;;16.30;39.80;;;16.10;32.12;95109.69;5087828;28;20446;-57
2022/04/04 10:39:47;;;;;;;14.33;4.70;;;16.10;39.80;;;16.00;32.08;95113.53;5088160;28;20446;-56